Time;durP1;ratioP1;P1;durP2;ratioP2;P2;SDS_P1;SDS_P2;PMS_P1;PMS_P2;Temp;Humidity;BMP_temperature;BMP_pressure;BME280_temperature;BME280_humidity;BME280_pressure;Samples;Min_cycle;Max_cycle;Signal;HPM_P1;HPM_P2
2023/03/19 00:02:08;;;;;;;56.13;35.60;;;;;;;7.37;63.89;99563.00;5051659;28;20096;-74
2023/03/19 00:04:33;;;;;;;46.78;30.15;;;;;;;7.36;64.27;99558.75;5052041;28;20078;-74
2023/03/19 00:06:58;;;;;;;50.10;30.67;;;;;;;7.15;63.94;99525.81;5055894;28;20116;-74
2023/03/19 00:09:24;;;;;;;59.92;35.63;;;;;;;7.42;64.44;99568.91;5055540;28;20075;-74
2023/03/19 00:11:49;;;;;;;42.60;27.50;;;;;;;7.41;64.46;99566.34;5055735;28;20025;-74
2023/03/19 00:14:16;;;;;;;46.95;28.83;;;;;;;7.30;65.83;99555.53;5055341;28;20384;-74
2023/03/19 00:16:41;;;;;;;38.78;23.80;;;;;;;7.40;65.49;99560.31;5055347;28;20072;-74
2023/03/19 00:19:07;;;;;;;39.63;26.73;;;;;;;7.23;65.27;99549.69;5055397;28;20106;-74
2023/03/19 00:21:32;;;;;;;38.47;27.38;;;;;;;7.34;65.02;99583.03;5055631;28;20032;-74
2023/03/19 00:24:01;;;;;;;35.88;24.15;;;;;;;7.14;64.04;99563.81;5055375;28;20487;-74
2023/03/19 00:26:27;;;;;;;32.22;23.42;;;;;;;7.11;64.07;99547.53;5055274;28;20494;-74
2023/03/19 00:28:53;;;;;;;30.98;22.52;;;;;;;7.32;63.94;99583.06;5055405;28;20021;-74
2023/03/19 00:31:19;;;;;;;31.30;20.30;;;;;;;7.27;63.48;99566.84;5055133;28;20032;-74
2023/03/19 00:33:45;;;;;;;34.28;21.63;;;;;;;7.33;64.20;99577.00;5055400;28;20079;-74
2023/03/19 00:36:10;;;;;;;29.85;19.85;;;;;;;7.25;64.28;99579.84;5054935;28;20505;-75
2023/03/19 00:38:36;;;;;;;33.72;22.08;;;;;;;7.14;64.97;99574.19;5055216;28;20036;-74
2023/03/19 00:41:04;;;;;;;32.30;21.48;;;;;;;7.02;64.98;99563.38;5055185;28;20033;-74
2023/03/19 00:43:29;;;;;;;36.13;21.63;;;;;;;7.03;64.92;99572.84;5054931;28;20049;-74
2023/03/19 00:45:54;;;;;;;32.22;22.75;;;;;;;7.02;64.56;99564.22;5055213;28;20493;-74
2023/03/19 00:48:20;;;;;;;32.80;20.23;;;;;;;6.91;64.67;99568.91;5054927;28;20033;-74
2023/03/19 00:50:46;;;;;;;33.78;22.70;;;;;;;7.03;64.76;99571.09;5055031;28;20477;-75
2023/03/19 00:53:12;;;;;;;30.77;20.52;;;;;;;6.89;64.88;99550.84;5055007;28;20105;-74
2023/03/19 00:55:37;;;;;;;33.10;20.83;;;;;;;6.99;64.33;99566.91;5054938;28;20531;-74
2023/03/19 00:58:02;;;;;;;32.15;21.95;;;;;;;6.91;65.11;99561.13;5054799;28;20504;-73
2023/03/19 01:00:28;;;;;;;34.50;22.55;;;;;;;6.91;65.95;99566.31;5054446;28;20024;-73
2023/03/19 01:02:53;;;;;;;38.05;25.75;;;;;;;6.82;66.29;99559.69;5054796;28;20423;-74
2023/03/19 01:05:19;;;;;;;38.90;26.13;;;;;;;6.67;66.16;99545.53;5054465;28;20040;-74
2023/03/19 01:07:45;;;;;;;43.88;27.40;;;;;;;6.67;66.73;99536.91;5054748;28;20028;-74
2023/03/19 01:10:10;;;;;;;65.05;41.50;;;;;;;6.74;65.99;99546.16;5054347;28;20640;-74
2023/03/19 01:12:36;;;;;;;58.72;34.40;;;;;;;6.55;66.43;99532.97;5054451;28;20112;-74
2023/03/19 01:15:03;;;;;;;133.23;58.22;;;;;;;6.65;66.92;99554.22;5054395;28;20365;-74
2023/03/19 01:17:28;;;;;;;211.10;83.60;;;;;;;6.47;67.87;99520.28;5051623;28;20432;-74
2023/03/19 01:19:54;;;;;;;127.78;56.53;;;;;;;6.45;68.05;99532.44;5054586;28;20025;-74
2023/03/19 01:22:19;;;;;;;73.15;40.22;;;;;;;6.50;67.70;99540.91;5054107;28;20029;-74
2023/03/19 01:24:44;;;;;;;50.72;29.13;;;;;;;6.42;68.18;99539.44;5054383;28;20044;-74
2023/03/19 01:27:10;;;;;;;44.03;26.98;;;;;;;6.32;67.65;99522.50;5054016;28;20033;-74
2023/03/19 01:29:36;;;;;;;66.93;35.40;;;;;;;6.45;67.90;99545.38;5054384;28;20025;-74
2023/03/19 01:32:01;;;;;;;61.42;32.92;;;;;;;6.16;68.80;99506.63;5054341;28;20029;-74
2023/03/19 01:34:26;;;;;;;40.15;24.90;;;;;;;6.31;68.41;99524.25;5054056;28;20465;-74
2023/03/19 01:36:52;;;;;;;35.70;23.23;;;;;;;6.45;67.17;99540.19;5054286;28;20021;-74
2023/03/19 01:39:17;;;;;;;37.28;24.27;;;;;;;6.45;67.60;99536.78;5053952;28;20025;-74
2023/03/19 01:41:43;;;;;;;40.03;25.17;;;;;;;6.35;67.85;99520.66;5052761;28;20033;-74
2023/03/19 01:44:26;;;;;;;51.83;29.80;;;;;;;6.41;68.12;99530.00;5053947;28;20184;-74
2023/03/19 01:46:51;;;;;;;52.63;32.17;;;;;;;6.43;68.04;99549.72;5054047;28;20083;-74
2023/03/19 01:49:19;;;;;;;49.45;31.08;;;;;;;6.41;68.19;99532.59;5053647;28;20021;-74
2023/03/19 01:51:46;;;;;;;41.28;26.15;;;;;;;6.31;67.56;99518.22;5053852;28;20115;-74
2023/03/19 01:54:20;;;;;;;71.70;40.45;;;;;;;6.41;67.15;99532.59;5053482;28;20104;-74
2023/03/19 01:56:50;;;;;;;67.25;37.67;;;;;;;6.41;68.16;99536.00;5053927;28;20468;-75
2023/03/19 01:59:31;;;;;;;54.60;32.53;;;;;;;6.33;68.33;99550.09;5053373;28;20546;-74
2023/03/19 02:02:14;;;;;;;48.47;31.33;;;;;;;6.34;69.39;99551.75;5053707;28;20029;-74
2023/03/19 02:04:42;;;;;;;46.92;29.60;;;;;;;6.14;68.65;99519.59;5053586;28;20488;-74
2023/03/19 02:07:08;;;;;;;53.70;32.03;;;;;;;6.05;68.56;99522.47;5053499;28;20052;-74
2023/03/19 02:09:34;;;;;;;50.13;30.42;;;;;;;6.16;69.59;99543.69;5053473;28;20056;-74
2023/03/19 02:12:00;;;;;;;47.75;29.20;;;;;;;6.17;69.29;99553.13;5053507;28;20428;-74
2023/03/19 02:14:26;;;;;;;45.35;28.13;;;;;;;6.11;68.97;99557.63;5053269;28;20029;-74
2023/03/19 02:16:53;;;;;;;47.33;28.55;;;;;;;5.94;69.18;99532.25;5053430;28;20190;-74
2023/03/19 02:19:29;;;;;;;49.10;28.38;;;;;;;6.03;69.42;99554.44;5053060;28;20025;-74
2023/03/19 02:21:55;;;;;;;49.15;29.88;;;;;;;5.99;69.03;99554.53;5053059;28;20504;-74
2023/03/19 02:24:47;;;;;;;50.67;30.33;;;;;;;6.01;68.99;99567.41;5053003;28;20036;-74
2023/03/19 02:27:13;;;;;;;48.35;27.88;;;;;;;5.96;69.83;99561.53;5052719;28;20491;-74
2023/03/19 02:29:38;;;;;;;46.72;27.27;;;;;;;6.01;68.98;99572.56;5053172;28;20029;-74
2023/03/19 02:32:04;;;;;;;63.50;35.45;;;;;;;5.94;69.28;99552.94;5053282;28;20424;-74
2023/03/19 02:34:41;;;;;;;62.17;35.88;;;;;;;6.00;68.45;99568.28;5052898;28;20028;-74
2023/03/19 02:37:18;;;;;;;48.78;29.67;;;;;;;6.04;67.61;99569.91;5053046;28;20041;-74
2023/03/19 02:40:03;;;;;;;49.88;29.33;;;;;;;6.04;67.36;99569.91;5052950;28;20024;-74
2023/03/19 02:42:29;;;;;;;61.13;33.92;;;;;;;5.76;68.17;99516.38;5052727;28;20021;-74
2023/03/19 02:44:55;;;;;;;61.20;32.63;;;;;;;6.06;67.48;99568.09;5053023;28;20110;-74
2023/03/19 02:47:20;;;;;;;71.75;38.95;;;;;;;5.98;68.34;99549.38;5052479;28;20094;-74
2023/03/19 02:49:46;;;;;;;37.30;23.58;;;;;;;6.03;67.73;99554.44;5052682;28;20029;-74
2023/03/19 02:52:12;;;;;;;33.10;21.42;;;;;;;5.71;67.21;99497.59;5052532;28;20104;-74
2023/03/19 02:54:40;;;;;;;45.00;27.35;;;;;;;6.03;67.29;99541.53;5052744;28;20035;-74
2023/03/19 02:57:05;;;;;;;45.25;25.38;;;;;;;6.01;67.17;99549.31;5052910;28;20036;-74
2023/03/19 02:59:31;;;;;;;61.75;33.83;;;;;;;5.94;68.04;99534.84;5052521;28;20025;-74
2023/03/19 03:01:56;;;;;;;101.60;51.03;;;;;;;5.84;67.93;99523.06;5052629;28;20041;-74
2023/03/19 03:04:21;;;;;;;93.18;47.40;;;;;;;6.00;68.04;99553.63;5052222;28;20105;-74
2023/03/19 03:06:47;;;;;;;67.18;35.90;;;;;;;6.14;68.07;99566.13;5052410;28;20091;-74
2023/03/19 03:09:13;;;;;;;57.63;32.83;;;;;;;5.81;67.67;99508.50;5052392;28;20074;-74
2023/03/19 03:11:40;;;;;;;50.33;28.85;;;;;;;6.08;67.71;99555.16;5052297;28;20469;-74
2023/03/19 03:14:06;;;;;;;40.42;24.77;;;;;;;6.11;67.56;99574.00;5052482;28;20124;-74
2023/03/19 03:16:31;;;;;;;35.92;21.58;;;;;;;6.06;67.61;99568.09;5052083;28;20139;-74
2023/03/19 03:18:57;;;;;;;38.90;23.05;;;;;;;6.06;67.17;99564.69;5052316;28;20027;-74
2023/03/19 03:21:23;;;;;;;39.92;24.17;;;;;;;6.11;67.66;99573.13;5051971;28;20029;-74
2023/03/19 03:23:48;;;;;;;40.42;22.27;;;;;;;6.07;66.88;99556.88;5051938;28;20021;-74
2023/03/19 03:26:14;;;;;;;59.97;30.90;;;;;;;6.14;66.93;99570.47;5052104;28;20032;-74
2023/03/19 03:28:40;;;;;;;78.70;40.70;;;;;;;6.06;67.26;99568.09;5052238;28;20083;-74
2023/03/19 03:31:05;;;;;;;55.63;30.23;;;;;;;5.88;67.13;99543.59;5052143;28;20381;-74
2023/03/19 03:33:31;;;;;;;47.03;27.75;;;;;;;5.91;67.14;99545.28;5051982;28;20071;-74
2023/03/19 03:35:57;;;;;;;89.68;46.08;;;;;;;5.91;67.15;99563.38;5051977;28;20029;-74
2023/03/19 03:38:22;;;;;;;80.93;42.42;;;;;;;5.98;67.28;99581.28;5051991;28;20040;-74
2023/03/19 03:40:51;;;;;;;62.80;35.65;;;;;;;5.98;68.01;99583.88;5051354;28;20028;-74
2023/03/19 03:43:17;;;;;;;48.10;27.88;;;;;;;5.68;68.01;99535.56;5051554;28;20044;-74
2023/03/19 03:45:43;;;;;;;38.97;22.98;;;;;;;5.86;67.51;99571.25;5052190;28;20415;-74
2023/03/19 03:48:08;;;;;;;49.25;28.90;;;;;;;5.90;67.98;99574.56;5051878;28;20035;-74
2023/03/19 03:50:33;;;;;;;88.53;48.30;;;;;;;5.72;68.18;99532.03;5051804;28;20120;-74
2023/03/19 03:52:59;;;;;;;121.88;60.05;;;;;;;5.70;68.27;99534.66;5051620;28;20032;-74
2023/03/19 03:55:24;;;;;;;66.38;34.70;;;;;;;5.85;68.31;99573.88;5051691;28;20033;-74
2023/03/19 03:57:49;;;;;;;61.35;32.08;;;;;;;5.66;68.61;99539.97;5051684;28;20025;-74
2023/03/19 04:00:15;;;;;;;53.08;28.40;;;;;;;5.78;68.27;99560.28;5051829;28;20562;-74
2023/03/19 04:02:40;;;;;;;37.78;22.67;;;;;;;5.70;67.67;99547.56;5051782;28;20108;-74
2023/03/19 04:05:06;;;;;;;43.45;23.38;;;;;;;5.75;67.42;99563.78;5051845;28;20033;-74
2023/03/19 04:07:31;;;;;;;69.00;37.35;;;;;;;5.64;68.17;99536.56;5051555;28;20017;-74
2023/03/19 04:09:58;;;;;;;74.50;39.40;;;;;;;5.65;68.33;99540.84;5050253;28;20032;-74
2023/03/19 04:12:23;;;;;;;57.53;32.40;;;;;;;5.76;68.27;99552.56;5051490;28;20075;-74
2023/03/19 04:14:48;;;;;;;47.67;29.55;;;;;;;5.61;68.07;99523.75;5051515;28;20029;-74
2023/03/19 04:17:14;;;;;;;43.80;25.83;;;;;;;5.69;68.25;99542.47;5051393;28;20041;-74
2023/03/19 04:19:39;;;;;;;45.67;26.20;;;;;;;5.68;69.05;99551.09;5051390;28;20416;-74
2023/03/19 04:22:06;;;;;;;59.38;34.63;;;;;;;5.71;69.25;99554.44;5051388;28;20067;-74
2023/03/19 04:24:32;;;;;;;65.43;39.42;;;;;;;5.62;69.26;99549.53;5051109;28;20025;-74
2023/03/19 04:26:57;;;;;;;78.35;42.90;;;;;;;5.55;69.34;99541.97;5051597;28;20082;-74
2023/03/19 04:29:22;;;;;;;71.38;39.50;;;;;;;5.50;69.91;99540.38;5051283;28;20100;-74
2023/03/19 04:31:49;;;;;;;57.00;30.92;;;;;;;5.64;69.95;99563.25;5051477;28;20029;-74
2023/03/19 04:34:14;;;;;;;46.83;26.35;;;;;;;5.50;70.38;99532.63;5051516;28;20037;-74
2023/03/19 04:36:41;;;;;;;40.30;21.48;;;;;;;5.54;69.62;99541.16;5051050;28;20073;-74
2023/03/19 04:39:06;;;;;;;42.65;25.00;;;;;;;5.60;69.02;99535.78;5051310;28;20425;-74
2023/03/19 04:41:32;;;;;;;45.10;26.55;;;;;;;5.72;69.71;99545.78;5051283;28;20032;-74
2023/03/19 04:43:57;;;;;;;41.25;25.40;;;;;;;5.74;68.87;99561.25;5051351;28;20029;-74
2023/03/19 04:46:23;;;;;;;44.13;27.88;;;;;;;5.63;69.60;99532.28;5051119;28;20079;-74
2023/03/19 04:48:48;;;;;;;39.80;23.73;;;;;;;5.60;68.92;99527.19;5051265;28;20028;-74
2023/03/19 04:51:13;;;;;;;39.60;22.73;;;;;;;5.62;68.79;99528.00;5052822;28;20025;-75
2023/03/19 04:53:39;;;;;;;35.60;22.15;;;;;;;5.75;68.63;99555.19;5054648;28;20060;-75
2023/03/19 04:56:06;;;;;;;36.45;23.00;;;;;;;5.75;68.56;99556.03;5055086;28;20025;-74
2023/03/19 04:58:32;;;;;;;56.25;32.88;;;;;;;5.64;68.55;99534.81;5054793;28;20055;-74
2023/03/19 05:00:57;;;;;;;58.78;32.92;;;;;;;5.66;68.82;99540.81;5054817;28;20060;-74
2023/03/19 05:03:23;;;;;;;55.90;32.22;;;;;;;5.63;68.82;99525.38;5054536;28;20017;-74
2023/03/19 05:05:49;;;;;;;42.85;25.05;;;;;;;5.79;67.92;99549.06;5054719;28;20061;-74
2023/03/19 05:08:14;;;;;;;40.08;24.35;;;;;;;5.57;68.19;99522.13;5054649;28;20060;-74
2023/03/19 05:10:39;;;;;;;43.63;25.33;;;;;;;5.76;68.43;99554.28;5054860;28;20036;-74
2023/03/19 05:13:06;;;;;;;49.30;27.83;;;;;;;5.69;68.15;99540.72;5054771;28;20063;-74
2023/03/19 05:15:32;;;;;;;51.85;29.77;;;;;;;5.69;68.58;99534.72;5054419;28;20538;-74
2023/03/19 05:17:57;;;;;;;76.97;42.97;;;;;;;5.73;68.43;99542.34;5054511;28;20057;-75
2023/03/19 05:20:23;;;;;;;67.13;38.60;;;;;;;5.83;69.12;99548.06;5054340;28;20032;-74
2023/03/19 05:22:48;;;;;;;64.82;37.50;;;;;;;5.83;69.31;99539.47;5054225;28;20029;-74
2023/03/19 05:25:13;;;;;;;63.13;36.13;;;;;;;6.04;68.27;99571.66;5054563;28;20100;-74
2023/03/19 05:27:39;;;;;;;56.92;34.70;;;;;;;5.81;68.89;99528.31;5054263;28;20506;-74
2023/03/19 05:30:06;;;;;;;51.17;31.65;;;;;;;5.84;67.75;99520.47;5054329;28;20036;-75
2023/03/19 05:32:32;;;;;;;52.63;31.38;;;;;;;6.18;67.73;99580.66;5054085;28;20047;-75
2023/03/19 05:34:57;;;;;;;51.28;32.58;;;;;;;6.27;67.48;99576.97;5052894;28;20107;-74
2023/03/19 05:37:23;;;;;;;60.72;44.53;;;;;;;6.27;67.04;99556.28;5053873;28;20388;-74
2023/03/19 05:39:48;;;;;;;48.35;35.63;;;;;;;6.53;66.93;99580.50;5054269;28;20052;-75
2023/03/19 05:42:14;;;;;;;37.58;24.35;;;;;;;6.47;66.43;99547.91;5054194;28;20033;-74
2023/03/19 05:44:39;;;;;;;36.97;25.85;;;;;;;6.57;66.26;99551.88;5053783;28;20025;-74
2023/03/19 05:47:05;;;;;;;39.83;24.65;;;;;;;6.94;66.13;99584.34;5054011;28;20087;-74
2023/03/19 05:49:31;;;;;;;37.75;23.63;;;;;;;7.09;65.39;99551.94;5053644;28;20056;-74
2023/03/19 05:51:57;;;;;;;35.95;21.38;;;;;;;7.40;64.87;99557.72;5052485;28;20057;-74
2023/03/19 05:54:22;;;;;;;36.20;20.35;;;;;;;7.61;64.29;99558.72;5053785;28;20032;-74
2023/03/19 05:56:47;;;;;;;33.15;19.50;;;;;;;8.08;63.75;99582.06;5052662;28;20135;-74
2023/03/19 05:59:12;;;;;;;33.17;20.58;;;;;;;8.39;62.71;99584.38;5053792;28;20029;-74
2023/03/19 06:01:38;;;;;;;31.15;20.88;;;;;;;8.90;61.52;99587.56;5053381;28;20029;-74
2023/03/19 06:04:03;;;;;;;32.15;21.30;;;;;;;9.40;60.52;99580.25;5052711;28;20025;-74
2023/03/19 06:06:29;;;;;;;30.13;19.15;;;;;;;9.50;59.99;99557.28;5053491;28;20469;-74
2023/03/19 06:08:54;;;;;;;33.58;20.20;;;;;;;9.69;59.04;99560.78;5053738;28;20025;-74
2023/03/19 06:11:19;;;;;;;33.17;19.67;;;;;;;10.04;58.74;99586.13;5053666;28;20025;-74
2023/03/19 06:13:45;;;;;;;26.80;18.67;;;;;;;10.27;57.64;99565.09;5053330;28;20033;-74
2023/03/19 06:16:10;;;;;;;27.92;18.95;;;;;;;10.33;57.05;99566.59;5053370;28;20088;-74
2023/03/19 06:18:37;;;;;;;30.02;19.30;;;;;;;10.36;57.06;99577.69;5053147;28;20040;-74
2023/03/19 06:21:02;;;;;;;29.50;19.52;;;;;;;10.33;57.61;99590.88;5053292;28;20655;-74
2023/03/19 06:23:28;;;;;;;29.13;17.98;;;;;;;10.31;57.98;99592.69;5053135;28;20029;-74
2023/03/19 06:25:53;;;;;;;27.08;18.73;;;;;;;10.16;58.03;99565.59;5053337;28;20029;-75
2023/03/19 06:28:18;;;;;;;23.20;16.65;;;;;;;10.24;57.80;99588.66;5053345;28;20467;-74
2023/03/19 06:30:44;;;;;;;27.33;18.08;;;;;;;10.17;57.73;99569.88;5053128;28;20021;-74
2023/03/19 06:33:09;;;;;;;30.98;19.17;;;;;;;10.13;57.99;99562.28;5053207;28;20032;-74
2023/03/19 06:35:35;;;;;;;28.58;19.80;;;;;;;10.09;58.12;99569.38;5052779;28;20484;-74
2023/03/19 06:38:00;;;;;;;27.85;18.25;;;;;;;10.07;57.97;99593.78;5053189;28;20060;-72
2023/03/19 06:40:25;;;;;;;33.85;19.20;;;;;;;10.15;58.29;99592.50;5052870;28;20051;-72
2023/03/19 06:42:51;;;;;;;27.02;17.45;;;;;;;10.21;58.48;99574.03;5052795;28;20025;-74
2023/03/19 06:45:18;;;;;;;28.40;18.42;;;;;;;10.54;57.87;99573.41;5052992;28;20063;-74
2023/03/19 06:47:46;;;;;;;29.25;19.20;;;;;;;10.81;57.60;99568.59;5052635;28;20029;-74
2023/03/19 06:50:12;;;;;;;26.17;16.88;;;;;;;11.05;56.64;99587.41;5052747;28;20025;-74
2023/03/19 06:52:40;;;;;;;25.10;17.63;;;;;;;10.72;57.00;99592.50;5052677;28;20025;-74
2023/03/19 06:55:06;;;;;;;31.70;19.83;;;;;;;10.72;57.27;99595.09;5052819;28;20021;-74
2023/03/19 06:57:32;;;;;;;26.13;17.35;;;;;;;10.76;56.85;99596.66;5052826;28;20427;-74
2023/03/19 06:59:57;;;;;;;28.08;17.88;;;;;;;10.85;57.24;99583.16;5052585;28;20025;-74
2023/03/19 07:02:23;;;;;;;24.92;16.73;;;;;;;10.79;57.01;99588.69;5052585;28;20025;-74
2023/03/19 07:04:48;;;;;;;23.70;17.77;;;;;;;11.24;56.62;99588.16;5052159;28;20025;-72
2023/03/19 07:07:13;;;;;;;27.30;17.30;;;;;;;11.74;55.46;99602.16;5051341;28;20059;-72
2023/03/19 07:09:39;;;;;;;24.63;18.30;;;;;;;11.99;54.92;99589.53;5052669;28;20025;-72
2023/03/19 07:12:05;;;;;;;24.48;15.90;;;;;;;11.76;54.16;99569.00;5052498;28;20469;-72
2023/03/19 07:14:30;;;;;;;24.65;17.25;;;;;;;12.03;54.39;99605.88;5052199;28;20020;-72
2023/03/19 07:16:55;;;;;;;23.38;16.92;;;;;;;11.86;54.40;99585.06;5052445;28;20045;-73
2023/03/19 07:19:21;;;;;;;22.48;15.85;;;;;;;12.13;54.42;99608.81;5052243;28;20495;-72
2023/03/19 07:21:47;;;;;;;27.17;18.50;;;;;;;12.72;53.70;99602.09;5052228;28;20029;-72
2023/03/19 07:24:12;;;;;;;23.77;18.10;;;;;;;13.70;52.32;99606.91;5052287;28;20031;-72
2023/03/19 07:26:38;;;;;;;25.35;16.88;;;;;;;14.11;50.86;99606.13;5052066;28;20086;-72
2023/03/19 07:29:03;;;;;;;24.08;17.23;;;;;;;14.63;49.97;99584.56;5052332;28;20052;-73
2023/03/19 07:31:28;;;;;;;24.42;16.30;;;;;;;15.31;48.96;99608.03;5051933;28;20025;-72
2023/03/19 07:33:53;;;;;;;31.30;20.75;;;;;;;14.99;48.82;99615.41;5052034;28;20059;-73
2023/03/19 07:36:20;;;;;;;21.83;16.70;;;;;;;14.91;48.78;99613.28;5052463;28;20117;-73
2023/03/19 07:38:46;;;;;;;26.90;18.80;;;;;;;14.99;48.93;99610.16;5051920;28;20040;-75
2023/03/19 07:41:11;;;;;;;29.30;20.77;;;;;;;15.81;47.88;99602.97;5051925;28;20385;-75
2023/03/19 07:43:36;;;;;;;24.95;17.63;;;;;;;16.41;46.82;99582.03;5051763;28;20063;-73
2023/03/19 07:46:02;;;;;;;22.10;16.83;;;;;;;16.82;46.11;99601.91;5052129;28;20078;-73
2023/03/19 07:48:27;;;;;;;30.05;19.15;;;;;;;17.25;45.34;99616.31;5051899;28;20044;-73
2023/03/19 07:50:53;;;;;;;19.92;15.75;;;;;;;17.52;44.65;99624.75;5051905;28;20481;-73
2023/03/19 07:53:18;;;;;;;19.42;15.27;;;;;;;17.05;45.36;99617.78;5052181;28;20021;-73
2023/03/19 07:55:44;;;;;;;20.85;15.10;;;;;;;16.42;46.05;99633.66;5051644;28;20033;-73
2023/03/19 07:58:10;;;;;;;20.40;15.10;;;;;;;15.84;46.88;99629.00;5051574;28;20416;-73
2023/03/19 08:00:35;;;;;;;20.15;15.25;;;;;;;15.47;48.20;99634.09;5051464;28;20053;-73
2023/03/19 08:03:00;;;;;;;18.38;14.32;;;;;;;15.44;47.85;99615.94;5051495;28;20025;-73
2023/03/19 08:05:26;;;;;;;19.58;14.02;;;;;;;15.38;48.02;99619.81;5051881;28;20028;-73
2023/03/19 08:07:51;;;;;;;19.02;14.63;;;;;;;14.96;48.43;99619.09;5050349;28;20025;-73
2023/03/19 08:10:17;;;;;;;20.25;14.57;;;;;;;14.78;48.43;99622.03;5051761;28;20033;-73
2023/03/19 08:12:42;;;;;;;20.88;14.20;;;;;;;14.44;48.90;99608.44;5051462;28;20021;-73
2023/03/19 08:15:09;;;;;;;17.98;12.70;;;;;;;14.40;48.80;99591.22;5051902;28;20526;-73
2023/03/19 08:17:37;;;;;;;16.45;13.25;;;;;;;14.50;48.54;99613.34;5051524;28;20048;-73
2023/03/19 08:20:08;;;;;;;17.88;13.23;;;;;;;14.55;48.73;99605.19;5051713;28;20025;-73
2023/03/19 08:22:35;;;;;;;18.95;13.63;;;;;;;14.32;49.07;99602.19;5051302;28;20033;-73
2023/03/19 08:25:01;;;;;;;17.13;13.73;;;;;;;14.48;49.26;99613.41;5051661;28;20032;-73
2023/03/19 08:27:27;;;;;;;16.63;13.07;;;;;;;14.63;49.30;99608.16;5055056;28;20029;-73
2023/03/19 08:29:52;;;;;;;17.67;13.50;;;;;;;15.06;49.47;99623.72;5055239;28;20025;-73
2023/03/19 08:32:18;;;;;;;17.60;12.52;;;;;;;15.15;48.21;99621.34;5055349;28;20102;-73
2023/03/19 08:34:43;;;;;;;20.60;13.57;;;;;;;15.09;47.25;99628.78;5055363;28;20380;-73
2023/03/19 08:37:09;;;;;;;14.50;11.77;;;;;;;14.98;47.88;99604.06;5055491;28;20029;-73
2023/03/19 08:39:34;;;;;;;16.58;12.77;;;;;;;15.07;47.78;99610.50;5055276;28;20031;-73
2023/03/19 08:41:59;;;;;;;16.75;13.25;;;;;;;15.15;47.92;99621.34;5055493;28;20119;-73
2023/03/19 08:44:25;;;;;;;17.75;12.88;;;;;;;14.92;47.70;99609.75;5055170;28;20025;-73
2023/03/19 08:46:50;;;;;;;17.92;13.23;;;;;;;14.78;48.18;99586.19;5055073;28;20021;-73
2023/03/19 08:49:15;;;;;;;18.58;13.70;;;;;;;15.03;48.39;99622.13;5055269;28;20036;-73
2023/03/19 08:51:41;;;;;;;19.90;14.82;;;;;;;14.64;48.64;99592.31;5055269;28;20029;-73
2023/03/19 08:54:06;;;;;;;18.15;13.52;;;;;;;14.76;48.98;99611.66;5055181;28;20029;-73
2023/03/19 08:56:31;;;;;;;17.05;12.98;;;;;;;14.73;48.67;99599.59;5055156;28;20029;-73
2023/03/19 08:58:57;;;;;;;18.55;13.55;;;;;;;14.46;48.72;99591.69;5054817;28;20047;-73
2023/03/19 09:01:23;;;;;;;17.85;13.60;;;;;;;14.36;49.24;99611.53;5054901;28;20384;-73
2023/03/19 09:03:48;;;;;;;16.63;12.07;;;;;;;14.13;49.52;99612.97;5054753;28;20116;-73
2023/03/19 09:06:13;;;;;;;22.80;12.95;;;;;;;13.98;49.70;99591.19;5054983;28;20111;-73
2023/03/19 09:08:39;;;;;;;17.63;13.07;;;;;;;13.79;50.21;99614.19;5054685;28;20483;-73
2023/03/19 09:11:05;;;;;;;16.90;12.75;;;;;;;13.94;50.49;99608.00;5054610;28;20131;-73
2023/03/19 09:13:30;;;;;;;20.70;12.80;;;;;;;13.84;50.46;99611.31;5054627;28;20055;-73
2023/03/19 09:15:56;;;;;;;17.38;12.93;;;;;;;13.81;50.44;99590.53;5054175;28;20035;-73
2023/03/19 09:18:24;;;;;;;18.85;13.63;;;;;;;13.68;50.43;99616.59;5054529;28;20017;-73
2023/03/19 09:20:51;;;;;;;19.38;14.60;;;;;;;13.61;50.81;99592.59;5054327;28;20469;-73
2023/03/19 09:23:17;;;;;;;16.30;13.18;;;;;;;13.78;50.55;99582.84;5054409;28;20025;-73
2023/03/19 09:25:42;;;;;;;16.23;13.20;;;;;;;14.07;50.64;99600.25;5054300;28;20021;-73
2023/03/19 09:28:07;;;;;;;16.92;13.32;;;;;;;14.24;50.51;99614.91;5054321;28;20469;-73
2023/03/19 09:30:33;;;;;;;19.08;14.45;;;;;;;14.39;50.37;99613.13;5054265;28;20036;-73
2023/03/19 09:32:59;;;;;;;18.58;14.35;;;;;;;14.47;50.52;99608.25;5054309;28;20032;-73
2023/03/19 09:35:29;;;;;;;18.40;14.25;;;;;;;14.46;49.88;99588.22;5054406;28;20036;-73
2023/03/19 09:37:55;;;;;;;19.67;13.68;;;;;;;14.49;50.05;99582.81;5052723;28;20513;-73
2023/03/19 09:40:26;;;;;;;19.75;14.57;;;;;;;14.77;49.58;99615.13;5054098;28;20113;-73
2023/03/19 09:43:13;;;;;;;18.98;14.00;;;;;;;14.83;49.56;99622.59;5053751;28;20025;-73
2023/03/19 09:45:38;;;;;;;22.65;14.98;;;;;;;14.61;49.47;99596.91;5053892;28;20472;-73
2023/03/19 09:48:11;;;;;;;21.05;16.35;;;;;;;14.79;49.88;99615.84;5054048;28;20028;-73
2023/03/19 09:50:37;;;;;;;21.08;15.70;;;;;;;14.61;49.61;99607.41;5054123;28;20036;-73
2023/03/19 09:53:20;;;;;;;23.77;15.25;;;;;;;14.45;49.89;99608.34;5053982;28;20385;-73
2023/03/19 09:55:51;;;;;;;22.92;16.67;;;;;;;14.37;50.65;99612.41;5053609;28;20054;-73
2023/03/19 09:58:22;;;;;;;18.93;15.53;;;;;;;14.56;50.64;99612.94;5053841;28;20664;-73
2023/03/19 10:00:50;;;;;;;21.88;15.55;;;;;;;14.64;50.62;99586.25;5053718;28;20029;-73
2023/03/19 10:03:53;;;;;;;21.25;15.98;;;;;;;14.88;50.77;99605.63;5053781;28;20029;-73
2023/03/19 10:06:35;;;;;;;21.20;17.38;;;;;;;14.71;50.34;99604.09;5053941;28;20528;-73
2023/03/19 10:09:15;;;;;;;19.30;14.60;;;;;;;14.46;50.72;99594.31;5053501;28;20035;-73
2023/03/19 10:11:58;;;;;;;22.77;16.10;;;;;;;14.38;51.09;99599.19;5053528;28;20057;-73
2023/03/19 10:14:48;;;;;;;22.35;16.10;;;;;;;14.54;51.20;99598.22;5053562;28;20067;-73
2023/03/19 10:17:23;;;;;;;20.17;15.10;;;;;;;14.47;50.43;99567.16;5053514;28;20554;-73
2023/03/19 10:19:53;;;;;;;19.70;15.93;;;;;;;14.68;50.19;99585.94;5053317;28;20036;-73
2023/03/19 10:22:27;;;;;;;23.33;16.88;;;;;;;14.63;50.04;99561.81;5053288;28;20028;-73
2023/03/19 10:24:55;;;;;;;19.50;14.68;;;;;;;14.85;49.40;99579.59;5052916;28;20025;-73
2023/03/19 10:27:24;;;;;;;21.15;15.80;;;;;;;14.91;49.47;99580.97;5053294;28;20532;-73
2023/03/19 10:29:50;;;;;;;23.25;16.80;;;;;;;15.07;49.50;99575.56;5053242;28;20028;-73
2023/03/19 10:32:17;;;;;;;22.00;16.13;;;;;;;15.07;49.63;99558.03;5053157;28;20036;-73
2023/03/19 10:34:48;;;;;;;22.60;16.48;;;;;;;15.28;49.59;99581.16;5053202;28;20467;-73
2023/03/19 10:37:29;;;;;;;23.30;17.17;;;;;;;15.32;50.09;99580.84;5053034;28;20108;-73
2023/03/19 10:39:57;;;;;;;21.17;15.70;;;;;;;15.12;49.78;99568.22;5053062;28;20068;-73
2023/03/19 10:42:46;;;;;;;21.00;14.38;;;;;;;14.97;49.98;99593.69;5053044;28;20423;-73
2023/03/19 10:45:28;;;;;;;19.10;14.25;;;;;;;14.87;49.67;99590.81;5052960;28;20024;-73
2023/03/19 10:47:59;;;;;;;19.23;14.30;;;;;;;14.84;50.50;99575.31;5052866;28;20104;-73
2023/03/19 10:50:35;;;;;;;26.35;15.05;;;;;;;14.82;50.21;99557.97;5052602;28;20103;-73
2023/03/19 10:53:29;;;;;;;20.70;14.02;;;;;;;14.61;49.21;99578.56;5052647;28;20021;-74
2023/03/19 10:56:04;;;;;;;21.60;14.13;;;;;;;14.66;49.91;99568.63;5052555;28;20025;-73
2023/03/19 10:58:31;;;;;;;31.67;20.40;;;;;;;14.69;50.14;99557.94;5052898;28;20029;-73
2023/03/19 11:01:03;;;;;;;44.92;28.48;;;;;;;14.85;50.32;99576.13;5052361;28;20021;-73
2023/03/19 11:03:38;;;;;;;23.50;14.48;;;;;;;14.81;49.41;99564.16;5052652;28;20025;-73
2023/03/19 11:06:15;;;;;;;19.42;14.95;;;;;;;14.94;49.79;99581.63;5052277;28;20461;-73
2023/03/19 11:08:41;;;;;;;19.52;13.85;;;;;;;14.72;49.97;99573.47;5052378;28;20044;-74
2023/03/19 11:11:22;;;;;;;22.67;15.02;;;;;;;14.71;49.42;99566.56;5052381;28;20474;-73
2023/03/19 11:13:48;;;;;;;19.70;14.55;;;;;;;14.81;49.78;99562.38;5052285;28;20079;-73
2023/03/19 11:16:14;;;;;;;18.63;14.00;;;;;;;14.88;49.88;99552.34;5052194;28;20076;-73
2023/03/19 11:18:40;;;;;;;18.73;14.23;;;;;;;15.09;50.30;99547.47;5052324;28;20035;-74
2023/03/19 11:21:21;;;;;;;21.55;15.48;;;;;;;15.09;49.34;99544.84;5051983;28;20037;-73
2023/03/19 11:24:01;;;;;;;20.80;15.17;;;;;;;15.05;49.54;99553.84;5052139;28;20028;-73